Houghton County Memorial Airport
KCMX : now visible

Airfield :











YOU CAN JOIN US ON...

 
LOGIN :

Register | Disclaimer

   EN    FR    IT 

 









Legend :    VFR   Marginal VFR   IFR   Intensive IFR   Very Intensive IFR
Visi :
Ceiling :
>= 8 km
>= 3000ft
5 to 8 km
1000 to 3000 ft
1500m to 5 km
500 to 1000 ft
800 to 1500m
200 to 500 ft
< 800m
< 200 ft
Symbols :   Thunderstorms  Fog  Heavy snow  Heavy precipitations  Wind > 20 kt






- Airport Elevation : 1095 ft
- IATA code : CMX


KCMX - Houghton County Memorial

CURRENT METAR :
  • 210853Z AUTO 02005KT 10SM CLR 14/08 A3017 RMK AO2 SLP214 T01390078 53003

EXPIRED METARs :
  • 210753Z AUTO 02005KT 10SM CLR 14/07 A3016 RMK AO2 SLP212 T01390072
  • 210653Z AUTO 36004KT 10SM CLR 12/08 A3016 RMK AO2 SLP211 T01220078
  • 210553Z AUTO 36006KT 10SM CLR 13/09 A3016 RMK AO2 SLP211 T01330089 10200 20117 53003
  • 210453Z AUTO 36006KT 10SM CLR 13/08 A3014 RMK AO2 SLP207 T01330078 402390117

TAF KCMX
Valid from the 21 at 06:00 until the 22 at 06:00 UTC


210520Z 2106/2206 00000KT P6SM FEW250
KZMP FIR / North America



MET'MAP, your aeronautical weather chart ! - Copyright ORBIFLY December 2007 - Disclaimer

ORBIFLY MET'MAP TEAM :

Programming & Development : Alexandra Zaïnal
Original concept : Baudouin d'Aumeries
Technical & hardware support : Manuel Goepfert
Assistance : Marc-Olivier Méhu




SOURCES & CREDITS :

   NOAA       Earth
Advisory